Time;durP1;ratioP1;P1;durP2;ratioP2;P2;SDS_P1;SDS_P2;PMS_P1;PMS_P2;Temp;Humidity;BMP_temperature;BMP_pressure;BME280_temperature;BME280_humidity;BME280_pressure;Samples;Min_cycle;Max_cycle;Signal;HPM_P1;HPM_P2
2023/01/16 00:01:42;;;;;;;;;;;5.40;99.90;;;;;;5094385;28;19920;-62
2023/01/16 00:04:08;;;;;;;;;;;5.40;99.90;;;;;;5094550;28;19912;-61
2023/01/16 00:06:35;;;;;;;;;;;5.40;99.90;;;;;;5094543;28;19908;-61
2023/01/16 00:09:02;;;;;;;;;;;5.40;99.90;;;;;;5094781;28;20394;-61
2023/01/16 00:11:27;;;;;;;;;;;5.30;99.90;;;;;;5094216;28;19914;-62
2023/01/16 00:13:53;;;;;;;;;;;5.40;99.90;;;;;;5094396;28;20280;-61
2023/01/16 00:16:20;;;;;;;;;;;5.30;99.90;;;;;;5094325;28;19949;-61
2023/01/16 00:18:46;;;;;;;;;;;5.40;99.90;;;;;;5076849;28;19908;-62
2023/01/16 00:21:11;;;;;;;;;;;5.40;99.90;;;;;;5094442;28;20345;-62
2023/01/16 00:23:37;;;;;;;;;;;5.40;99.90;;;;;;5094231;28;19995;-62
2023/01/16 00:26:06;;;;;;;;;;;5.40;99.90;;;;;;5094206;28;19909;-62
2023/01/16 00:28:32;;;;;;;;;;;5.40;99.90;;;;;;5094186;28;19908;-62
2023/01/16 00:30:58;;;;;;;;;;;5.40;99.90;;;;;;5094498;28;20011;-62
2023/01/16 00:33:23;;;;;;;;;;;5.40;99.90;;;;;;5094128;28;19921;-61
2023/01/16 00:35:49;;;;;;;;;;;5.40;99.90;;;;;;5094347;28;19908;-61
2023/01/16 00:38:14;;;;;;;;;;;5.40;99.90;;;;;;5094083;28;19995;-61
2023/01/16 00:40:40;;;;;;;;;;;5.30;99.90;;;;;;5093928;28;20331;-62
2023/01/16 00:43:05;;;;;;;;;;;5.20;99.90;;;;;;5093959;28;19908;-61
2023/01/16 00:45:31;;;;;;;;;;;5.20;99.90;;;;;;5094208;28;19908;-62
2023/01/16 00:47:58;;;;;;;;;;;5.20;99.90;;;;;;5094195;28;19908;-62
2023/01/16 00:50:24;;;;;;;;;;;5.20;99.90;;;;;;5094128;28;19915;-61
2023/01/16 00:52:49;;;;;;;;;;;5.20;99.90;;;;;;5093806;28;19908;-61
2023/01/16 00:55:15;;;;;;;;;;;5.30;99.90;;;;;;5093842;28;19987;-61
2023/01/16 00:57:40;;;;;;;;;;;5.30;99.90;;;;;;5094015;28;19908;-61
2023/01/16 01:00:06;;;;;;;;;;;5.30;99.90;;;;;;5093503;28;19916;-61
2023/01/16 01:02:31;;;;;;;;;;;5.30;99.90;;;;;;5093975;28;19908;-61
2023/01/16 01:04:57;;;;;;;;;;;5.30;99.90;;;;;;5093988;28;19954;-61
2023/01/16 01:07:22;;;;;;;;;;;5.30;99.90;;;;;;5093636;28;20373;-62
2023/01/16 01:09:48;;;;;;;;;;;5.30;99.90;;;;;;5093658;28;19935;-61
2023/01/16 01:12:13;;;;;;;;;;;5.30;99.90;;;;;;5093896;28;19915;-62
2023/01/16 01:14:39;;;;;;;;;;;5.20;99.90;;;;;;5093571;28;19908;-61
2023/01/16 01:17:04;;;;;;;;;;;5.20;99.90;;;;;;5093600;28;20002;-61
2023/01/16 01:19:30;;;;;;;;;;;5.20;99.90;;;;;;5075621;28;19908;-61
2023/01/16 01:21:55;;;;;;;;;;;5.20;99.90;;;;;;5094311;28;19969;-62
2023/01/16 01:24:21;;;;;;;;;;;5.10;99.90;;;;;;5097915;28;20023;-61
2023/01/16 01:26:46;;;;;;;;;;;5.10;99.90;;;;;;5097610;28;19907;-61
2023/01/16 01:29:12;;;;;;;;;;;5.10;99.90;;;;;;5097523;28;19908;-61
2023/01/16 01:31:37;;;;;;;;;;;5.20;99.90;;;;;;5097770;28;19974;-61
2023/01/16 01:34:03;;;;;;;;;;;5.10;99.90;;;;;;5097724;28;19909;-62
2023/01/16 01:36:28;;;;;;;;;;;5.10;99.90;;;;;;5097391;28;19957;-61
2023/01/16 01:38:54;;;;;;;;;;;5.10;99.90;;;;;;5097619;28;20403;-61
2023/01/16 01:41:19;;;;;;;;;;;5.00;99.90;;;;;;5097255;28;20293;-61
2023/01/16 01:43:47;;;;;;;;;;;5.00;99.90;;;;;;5097554;28;19915;-61
2023/01/16 01:46:32;;;;;;;;;;;4.90;99.90;;;;;;5097196;28;19908;-61
2023/01/16 01:49:05;;;;;;;;;;;4.90;99.90;;;;;;5097118;28;20127;-61
2023/01/16 01:51:33;;;;;;;;;;;4.90;99.90;;;;;;5097417;28;20333;-61
2023/01/16 01:54:04;;;;;;;;;;;4.80;99.90;;;;;;5097368;28;19912;-61
2023/01/16 01:56:34;;;;;;;;;;;4.70;99.90;;;;;;5097280;28;19908;-61
2023/01/16 01:59:02;;;;;;;;;;;4.70;99.90;;;;;;5097008;28;20007;-61
2023/01/16 02:01:28;;;;;;;;;;;4.60;99.90;;;;;;5096714;28;19920;-61
2023/01/16 02:03:57;;;;;;;;;;;4.50;99.90;;;;;;5097142;28;19909;-61
2023/01/16 02:06:28;;;;;;;;;;;4.60;99.90;;;;;;5097098;28;19915;-61
2023/01/16 02:08:54;;;;;;;;;;;4.50;99.90;;;;;;5097051;28;19916;-61
2023/01/16 02:11:25;;;;;;;;;;;4.60;99.90;;;;;;5097038;28;20277;-61
2023/01/16 02:13:52;;;;;;;;;;;4.50;99.90;;;;;;5096689;28;19908;-61
2023/01/16 02:19:18;;;;;;;;;;;4.50;99.90;;;;;;5096442;28;20067;-61
2023/01/16 02:24:53;;;;;;;;;;;4.50;99.90;;;;;;5091355;27;19913;-61
2023/01/16 02:27:30;;;;;;;;;;;4.50;99.90;;;;;;5091168;28;19913;-61
2023/01/16 02:30:04;;;;;;;;;;;4.40;99.90;;;;;;5091161;28;19958;-61
2023/01/16 02:35:32;;;;;;;;;;;4.30;99.90;;;;;;5071064;28;20297;-61
2023/01/16 02:38:03;;;;;;;;;;;4.30;99.90;;;;;;5071591;28;20444;-61
2023/01/16 02:40:36;;;;;;;;;;;4.20;99.90;;;;;;5071316;28;20358;-61
2023/01/16 02:43:09;;;;;;;;;;;4.20;99.90;;;;;;5071187;28;19909;-61
2023/01/16 02:45:44;;;;;;;;;;;4.10;99.90;;;;;;5071090;28;19912;-61
2023/01/16 02:48:16;;;;;;;;;;;4.00;99.90;;;;;;5071049;28;19916;-61
2023/01/16 02:51:01;;;;;;;;;;;4.00;99.90;;;;;;5086684;28;19960;-61
2023/01/16 02:53:38;;;;;;;;;;;3.90;99.90;;;;;;5070611;28;20294;-61
2023/01/16 02:56:08;;;;;;;;;;;3.90;99.90;;;;;;5069531;28;19919;-61
2023/01/16 02:58:36;;;;;;;;;;;3.90;99.90;;;;;;5070849;28;20358;-61
2023/01/16 03:01:01;;;;;;;;;;;3.90;99.90;;;;;;5070560;28;19916;-61
2023/01/16 03:03:41;;;;;;;;;;;3.80;99.90;;;;;;5070715;28;20302;-61
2023/01/16 03:06:16;;;;;;;;;;;3.80;99.90;;;;;;5070508;28;20362;-61
2023/01/16 03:08:51;;;;;;;;;;;3.80;99.90;;;;;;5070606;28;20366;-61
2023/01/16 03:11:22;;;;;;;;;;;3.80;99.90;;;;;;5070560;28;19909;-61
2023/01/16 03:14:07;;;;;;;;;;;3.80;99.90;;;;;;5070447;28;19916;-61
2023/01/16 03:16:50;;;;;;;;;;;3.80;99.90;;;;;;5070220;28;19909;-62
2023/01/16 03:19:26;;;;;;;;;;;3.80;99.90;;;;;;5070176;28;19913;-61
2023/01/16 03:22:11;;;;;;;;;;;3.80;99.90;;;;;;5070018;28;20019;-61
2023/01/16 03:24:57;;;;;;;;;;;3.90;99.90;;;;;;5069956;28;19909;-61
2023/01/16 03:30:11;;;;;;;;;;;4.00;99.90;;;;;;5091265;27;19912;-61
2023/01/16 03:32:44;;;;;;;;;;;4.00;99.90;;;;;;5091231;28;19916;-61
2023/01/16 03:35:16;;;;;;;;;;;4.00;99.90;;;;;;5091383;28;19908;-61
2023/01/16 03:37:46;;;;;;;;;;;4.00;99.90;;;;;;5091311;28;20385;-61
2023/01/16 03:40:13;;;;;;;;;;;4.00;99.90;;;;;;5091069;28;19916;-61
2023/01/16 03:42:43;;;;;;;;;;;4.00;99.90;;;;;;5091207;28;19912;-61
2023/01/16 03:45:11;;;;;;;;;;;4.00;99.90;;;;;;5090908;28;19962;-64
2023/01/16 03:47:40;;;;;;;;;;;3.90;99.90;;;;;;5090891;28;19909;-61
2023/01/16 03:50:07;;;;;;;;;;;3.90;99.90;;;;;;5090863;28;19919;-61
2023/01/16 03:52:36;;;;;;;;;;;4.00;99.90;;;;;;5090784;28;19916;-61
2023/01/16 03:55:06;;;;;;;;;;;4.00;99.90;;;;;;5090842;28;19998;-61
2023/01/16 03:57:34;;;;;;;;;;;4.00;99.90;;;;;;5090989;28;19940;-61
2023/01/16 04:00:00;;;;;;;;;;;4.10;99.90;;;;;;5090662;28;20302;-61
2023/01/16 04:02:37;;;;;;;;;;;4.10;99.90;;;;;;5090633;28;19909;-61
2023/01/16 04:05:06;;;;;;;;;;;4.10;99.90;;;;;;5090809;28;20069;-61
2023/01/16 04:07:35;;;;;;;;;;;4.10;99.90;;;;;;5090798;28;20016;-61
2023/01/16 04:10:03;;;;;;;;;;;4.20;99.90;;;;;;5090723;28;19919;-61
2023/01/16 04:12:31;;;;;;;;;;;4.20;99.90;;;;;;5090299;28;19912;-61
2023/01/16 04:14:58;;;;;;;;;;;4.30;99.90;;;;;;5090616;28;20281;-61
2023/01/16 04:17:24;;;;;;;;;;;4.30;99.90;;;;;;5090308;28;19915;-61
2023/01/16 04:19:50;;;;;;;;;;;4.30;99.90;;;;;;5090572;28;20328;-61
2023/01/16 04:22:21;;;;;;;;;;;4.30;99.90;;;;;;5090233;28;19958;-61
2023/01/16 04:24:47;;;;;;;;;;;4.20;99.90;;;;;;5090428;28;20419;-61
2023/01/16 04:27:12;;;;;;;;;;;4.20;99.90;;;;;;5090394;28;20285;-61
2023/01/16 04:29:38;;;;;;;;;;;4.20;99.90;;;;;;5106498;28;19973;-61
2023/01/16 04:32:03;;;;;;;;;;;4.20;99.90;;;;;;5110501;28;20365;-61
2023/01/16 04:34:29;;;;;;;;;;;4.20;99.90;;;;;;5110631;28;19912;-61
2023/01/16 04:36:54;;;;;;;;;;;4.10;99.90;;;;;;5110292;28;19944;-61
2023/01/16 04:39:20;;;;;;;;;;;4.00;99.90;;;;;;5109130;28;19909;-61
2023/01/16 04:41:50;;;;;;;;;;;4.00;99.90;;;;;;5096247;28;19916;-61
2023/01/16 04:44:16;;;;;;;;;;;4.00;99.90;;;;;;5096839;28;20302;-61
2023/01/16 04:46:41;;;;;;;;;;;3.90;99.90;;;;;;5096556;28;20005;-61
2023/01/16 04:49:07;;;;;;;;;;;3.90;99.90;;;;;;5096398;28;20292;-61
2023/01/16 04:51:33;;;;;;;;;;;3.80;99.90;;;;;;5096694;28;19908;-61
2023/01/16 04:53:58;;;;;;;;;;;3.70;99.90;;;;;;5096379;28;19940;-61
2023/01/16 04:56:24;;;;;;;;;;;3.70;99.90;;;;;;5096331;28;20290;-61
2023/01/16 04:58:50;;;;;;;;;;;3.70;99.90;;;;;;5096528;28;20277;-61
2023/01/16 05:01:17;;;;;;;;;;;3.70;99.90;;;;;;5096543;28;19995;-61
2023/01/16 05:03:42;;;;;;;;;;;3.70;99.90;;;;;;5096489;28;19908;-61
2023/01/16 05:06:08;;;;;;;;;;;3.70;99.90;;;;;;5096241;28;19912;-61
2023/01/16 05:08:33;;;;;;;;;;;3.70;99.90;;;;;;5096092;28;19919;-61
2023/01/16 05:11:01;;;;;;;;;;;3.80;99.90;;;;;;5096307;28;19908;-61
2023/01/16 05:13:27;;;;;;;;;;;3.80;99.90;;;;;;5096312;28;19909;-61
2023/01/16 05:15:52;;;;;;;;;;;3.80;99.90;;;;;;5095969;28;19908;-61
2023/01/16 05:18:18;;;;;;;;;;;3.80;99.90;;;;;;5095920;28;19969;-61
2023/01/16 05:20:43;;;;;;;;;;;3.80;99.90;;;;;;5095874;28;19915;-61
2023/01/16 05:23:10;;;;;;;;;;;3.80;99.90;;;;;;5095841;28;19916;-61
2023/01/16 05:25:36;;;;;;;;;;;3.70;99.90;;;;;;5096040;28;19998;-62
2023/01/16 05:28:02;;;;;;;;;;;3.70;99.90;;;;;;5095462;28;19996;-61
2023/01/16 05:30:27;;;;;;;;;;;3.60;99.90;;;;;;5095989;28;19908;-61
2023/01/16 05:32:52;;;;;;;;;;;3.60;99.90;;;;;;5095606;28;19915;-61
2023/01/16 05:35:19;;;;;;;;;;;3.60;99.90;;;;;;5095625;28;19912;-61
2023/01/16 05:37:45;;;;;;;;;;;3.60;99.90;;;;;;5095786;28;19908;-61
2023/01/16 05:40:10;;;;;;;;;;;3.50;99.90;;;;;;5095462;28;19915;-61
2023/01/16 05:42:36;;;;;;;;;;;3.50;99.90;;;;;;5095725;28;19908;-61
2023/01/16 05:45:01;;;;;;;;;;;3.50;99.90;;;;;;5095360;28;19908;-61
2023/01/16 05:47:27;;;;;;;;;;;3.50;99.90;;;;;;5095366;28;19908;-61
2023/01/16 05:49:52;;;;;;;;;;;3.50;99.90;;;;;;5095524;28;19965;-61
2023/01/16 05:52:18;;;;;;;;;;;3.50;99.90;;;;;;5094534;28;19908;-61
2023/01/16 05:54:43;;;;;;;;;;;3.50;99.90;;;;;;5095203;28;19916;-61
2023/01/16 05:57:09;;;;;;;;;;;3.50;99.90;;;;;;5095179;28;19908;-61
2023/01/16 05:59:34;;;;;;;;;;;3.60;99.90;;;;;;5095387;28;20366;-61
2023/01/16 06:02:00;;;;;;;;;;;3.60;99.90;;;;;;5095334;28;19958;-61
2023/01/16 06:04:25;;;;;;;;;;;3.60;99.90;;;;;;5095307;28;19908;-61
2023/01/16 06:06:51;;;;;;;;;;;3.50;99.90;;;;;;5095012;28;19974;-60
2023/01/16 06:09:16;;;;;;;;;;;3.60;99.90;;;;;;5094885;28;19965;-61
2023/01/16 06:11:42;;;;;;;;;;;3.60;99.90;;;;;;5094983;28;19951;-61
2023/01/16 06:14:08;;;;;;;;;;;3.60;99.90;;;;;;5095037;28;20366;-61
2023/01/16 06:16:34;;;;;;;;;;;3.50;99.90;;;;;;5094786;28;19908;-61
2023/01/16 06:18:59;;;;;;;;;;;3.50;99.90;;;;;;5095053;28;19912;-61
2023/01/16 06:21:25;;;;;;;;;;;3.50;99.90;;;;;;5094987;28;19939;-61
2023/01/16 06:23:50;;;;;;;;;;;3.50;99.90;;;;;;5094934;28;19908;-61
2023/01/16 06:26:16;;;;;;;;;;;3.50;99.90;;;;;;5094630;28;19957;-61
2023/01/16 06:28:42;;;;;;;;;;;3.50;99.90;;;;;;5094248;28;19927;-61
2023/01/16 06:31:07;;;;;;;;;;;3.50;99.90;;;;;;5094811;28;19950;-62
2023/01/16 06:33:33;;;;;;;;;;;3.50;99.90;;;;;;5094514;28;19908;-61
2023/01/16 06:35:59;;;;;;;;;;;3.50;99.90;;;;;;5094449;28;19916;-61
2023/01/16 06:38:24;;;;;;;;;;;3.60;99.90;;;;;;5094318;28;19909;-61
2023/01/16 06:40:50;;;;;;;;;;;3.60;99.90;;;;;;5094346;28;19908;-61
2023/01/16 06:43:16;;;;;;;;;;;3.60;99.90;;;;;;5094351;28;19930;-61
2023/01/16 06:45:42;;;;;;;;;;;3.60;99.90;;;;;;5094524;28;19908;-61
2023/01/16 06:48:07;;;;;;;;;;;3.60;99.90;;;;;;5094072;28;19916;-62
2023/01/16 06:50:33;;;;;;;;;;;3.60;99.90;;;;;;5094170;28;19958;-61
2023/01/16 06:52:59;;;;;;;;;;;3.60;99.90;;;;;;5094165;28;19920;-61
2023/01/16 06:55:24;;;;;;;;;;;3.60;99.90;;;;;;5094086;28;19932;-61
2023/01/16 06:57:50;;;;;;;;;;;3.60;99.90;;;;;;5094233;28;19946;-61
2023/01/16 07:00:15;;;;;;;;;;;3.70;99.90;;;;;;5093894;28;19908;-61
2023/01/16 07:02:41;;;;;;;;;;;3.70;99.90;;;;;;5093613;28;20362;-61
2023/01/16 07:05:07;;;;;;;;;;;3.70;99.90;;;;;;5075530;28;19908;-61
2023/01/16 07:07:33;;;;;;;;;;;3.80;99.90;;;;;;5094100;28;19950;-61
2023/01/16 07:09:59;;;;;;;;;;;3.90;99.90;;;;;;5093757;28;19993;-61
2023/01/16 07:12:24;;;;;;;;;;;4.00;99.90;;;;;;5093792;28;20395;-61
2023/01/16 07:23:23;;;;;;;;;;;4.30;99.90;;;;;;5093328;28;19936;-61
2023/01/16 07:25:50;;;;;;;;;;;4.40;99.90;;;;;;5093517;28;19908;-61
2023/01/16 07:28:16;;;;;;;;;;;4.50;99.90;;;;;;5093460;28;19920;-61
2023/01/16 07:30:43;;;;;;;;;;;4.50;99.90;;;;;;5093786;28;19914;-61
2023/01/16 07:33:08;;;;;;;;;;;4.50;99.90;;;;;;5093876;28;20415;-62
2023/01/16 07:35:34;;;;;;;;;;;4.60;99.90;;;;;;5093044;28;19995;-61
2023/01/16 07:37:59;;;;;;;;;;;4.60;99.90;;;;;;5092804;28;19912;-61
2023/01/16 07:40:25;;;;;;;;;;;4.80;99.90;;;;;;5093267;28;19913;-63
2023/01/16 07:42:51;;;;;;;;;;;4.70;99.90;;;;;;5075409;28;19908;-64
2023/01/16 07:45:16;;;;;;;;;;;4.80;99.90;;;;;;5093437;28;20378;-63
2023/01/16 07:47:42;;;;;;;;;;;4.80;99.90;;;;;;5093089;28;19927;-63
2023/01/16 07:50:07;;;;;;;;;;;4.80;99.90;;;;;;5092796;28;19919;-62
2023/01/16 07:52:33;;;;;;;;;;;4.80;99.90;;;;;;5087039;28;19923;-62
2023/01/16 07:54:58;;;;;;;;;;;4.80;99.90;;;;;;5080281;28;19923;-62
2023/01/16 07:57:25;;;;;;;;;;;4.80;99.90;;;;;;5085510;28;19912;-61
2023/01/16 07:59:51;;;;;;;;;;;4.90;99.90;;;;;;5104481;28;19938;-64
2023/01/16 08:02:16;;;;;;;;;;;5.00;99.90;;;;;;5091020;28;19919;-62
2023/01/16 08:04:41;;;;;;;;;;;5.10;99.90;;;;;;5086895;28;19918;-62
2023/01/16 08:07:07;;;;;;;;;;;5.20;99.90;;;;;;5074777;28;20332;-62
2023/01/16 08:09:33;;;;;;;;;;;5.20;99.90;;;;;;5092757;28;19938;-64
2023/01/16 08:11:58;;;;;;;;;;;5.20;99.90;;;;;;5079332;28;19916;-63
2023/01/16 08:14:24;;;;;;;;;;;5.20;99.90;;;;;;5087911;28;19935;-63
2023/01/16 08:16:49;;;;;;;;;;;5.30;99.90;;;;;;5069486;28;19944;-63
2023/01/16 08:19:14;;;;;;;;;;;5.30;99.90;;;;;;5091069;28;19927;-62
2023/01/16 08:21:40;;;;;;;;;;;5.30;99.90;;;;;;5095461;28;20258;-63
2023/01/16 08:24:06;;;;;;;;;;;5.30;99.90;;;;;;5082332;28;19935;-63
2023/01/16 08:26:41;;;;;;;;;;;5.40;99.90;;;;;;5082747;28;20397;-63
2023/01/16 08:29:09;;;;;;;;;;;5.40;99.90;;;;;;5075994;28;19965;-63
2023/01/16 08:31:34;;;;;;;;;;;5.30;99.90;;;;;;5088524;28;20384;-63
2023/01/16 08:33:59;;;;;;;;;;;5.30;99.90;;;;;;5089689;28;19912;-63
2023/01/16 08:36:25;;;;;;;;;;;5.30;99.90;;;;;;5094389;28;19918;-65
2023/01/16 08:38:51;;;;;;;;;;;5.40;99.90;;;;;;5092311;28;20032;-63
2023/01/16 08:52:26;;;;;;;;;;;5.60;99.90;;;;;;5084524;28;19989;-65
2023/01/16 08:54:52;;;;;;;;;;;5.60;99.90;;;;;;5086255;28;20332;-63
2023/01/16 08:57:18;;;;;;;;;;;5.60;99.90;;;;;;5091170;28;19912;-64
2023/01/16 08:59:43;;;;;;;;;;;5.70;99.90;;;;;;5095677;28;19912;-64
2023/01/16 09:02:10;;;;;;;;;;;5.70;99.90;;;;;;5093182;28;20393;-64
2023/01/16 09:04:35;;;;;;;;;;;5.70;99.90;;;;;;5087962;28;19916;-64
2023/01/16 09:07:01;;;;;;;;;;;5.80;99.90;;;;;;5083723;28;19921;-64
2023/01/16 09:09:26;;;;;;;;;;;5.80;99.90;;;;;;5086822;28;19920;-63
2023/01/16 09:14:39;;;;;;;;;;;5.80;99.90;;;;;;5089045;28;19938;-64
2023/01/16 09:17:06;;;;;;;;;;;5.70;99.90;;;;;;5087980;28;20382;-64
2023/01/16 09:19:32;;;;;;;;;;;5.60;99.90;;;;;;5087036;28;19912;-65
2023/01/16 09:21:57;;;;;;;;;;;5.40;99.90;;;;;;5090704;28;20393;-64
2023/01/16 09:24:23;;;;;;;;;;;5.40;99.90;;;;;;5082871;28;19920;-64
2023/01/16 09:26:48;;;;;;;;;;;5.30;99.90;;;;;;5087012;28;20386;-64
2023/01/16 09:29:14;;;;;;;;;;;5.40;99.90;;;;;;5094605;28;19943;-63
2023/01/16 09:31:39;;;;;;;;;;;5.40;99.90;;;;;;5094570;28;19920;-64
2023/01/16 09:34:05;;;;;;;;;;;5.50;99.90;;;;;;5091617;28;20016;-65
2023/01/16 09:36:30;;;;;;;;;;;5.50;99.90;;;;;;5093224;28;20015;-65
2023/01/16 09:38:56;;;;;;;;;;;5.50;99.90;;;;;;5095215;28;19912;-65
2023/01/16 09:43:35;;;;;;;;;;;5.50;99.90;;;;;;5070939;28;19981;-67
2023/01/16 09:44:08;;;;;;;;;;;5.50;99.90;;;;;;5086126;28;19957;-66
2023/01/16 09:46:37;;;;;;;;;;;5.60;99.90;;;;;;5094094;28;19912;-65
2023/01/16 09:49:08;;;;;;;;;;;5.60;99.90;;;;;;5093199;28;19977;-65
2023/01/16 09:51:35;;;;;;;;;;;5.60;99.90;;;;;;5089249;28;19912;-65
2023/01/16 09:59:45;;;;;;;;;;;5.70;99.90;;;;;;5087768;28;20393;-64
2023/01/16 10:02:22;;;;;;;;;;;5.70;99.90;;;;;;5092302;28;19958;-64
2023/01/16 10:04:47;;;;;;;;;;;5.70;99.90;;;;;;5081760;28;19912;-65
2023/01/16 10:07:33;;;;;;;;;;;5.70;99.90;;;;;;5092615;28;20007;-67
2023/01/16 10:10:06;;;;;;;;;;;5.80;99.90;;;;;;5087757;28;19916;-65
2023/01/16 10:12:33;;;;;;;;;;;5.80;99.90;;;;;;5094255;28;19912;-65
2023/01/16 10:15:18;;;;;;;;;;;5.80;99.90;;;;;;5094247;28;19908;-65
2023/01/16 10:17:52;;;;;;;;;;;5.80;99.90;;;;;;5094167;28;19974;-63
2023/01/16 10:23:15;;;;;;;;;;;5.80;99.90;;;;;;5090592;27;19940;-63
2023/01/16 10:25:49;;;;;;;;;;;5.80;99.90;;;;;;5089671;28;19912;-65
2023/01/16 10:28:35;;;;;;;;;;;5.90;99.90;;;;;;5060215;28;19981;-64
2023/01/16 10:31:05;;;;;;;;;;;5.90;99.90;;;;;;5080482;28;19908;-67
2023/01/16 10:33:50;;;;;;;;;;;5.90;99.90;;;;;;5069240;28;19943;-64
2023/01/16 10:36:17;;;;;;;;;;;5.90;99.90;;;;;;5077845;28;19915;-66
2023/01/16 10:38:45;;;;;;;;;;;6.00;99.90;;;;;;5096129;28;19913;-67
2023/01/16 10:49:38;;;;;;;;;;;6.10;99.90;;;;;;5111447;28;19916;-63
2023/01/16 10:52:04;;;;;;;;;;;6.10;99.90;;;;;;5057930;28;19924;-63
2023/01/16 10:54:30;;;;;;;;;;;6.10;99.90;;;;;;5072059;28;19913;-62
2023/01/16 10:57:01;;;;;;;;;;;6.10;99.90;;;;;;5075345;28;20124;-62
2023/01/16 10:59:27;;;;;;;;;;;6.10;99.90;;;;;;5056672;28;19940;-64
2023/01/16 11:02:04;;;;;;;;;;;6.00;99.90;;;;;;5070364;28;19913;-64
2023/01/16 11:04:33;;;;;;;;;;;6.00;99.90;;;;;;5079247;28;19912;-65
2023/01/16 11:07:12;;;;;;;;;;;6.00;99.90;;;;;;5069947;28;19912;-61
2023/01/16 11:09:37;;;;;;;;;;;6.00;99.90;;;;;;5079296;28;20008;-63
2023/01/16 11:20:41;;;;;;;;;;;5.70;99.90;;;;;;5081686;28;19912;-62
2023/01/16 11:23:17;;;;;;;;;;;5.60;99.90;;;;;;5072949;28;20101;-63
2023/01/16 11:25:43;;;;;;;;;;;5.70;99.90;;;;;;5095088;28;19951;-63
2023/01/16 11:28:11;;;;;;;;;;;5.60;99.90;;;;;;5090920;28;20369;-62
2023/01/16 11:30:39;;;;;;;;;;;5.50;99.90;;;;;;5078333;28;19916;-63
2023/01/16 11:33:08;;;;;;;;;;;5.50;99.90;;;;;;5071206;28;20720;-64
2023/01/16 11:35:35;;;;;;;;;;;5.50;99.90;;;;;;5076515;28;20354;-63
2023/01/16 11:38:02;;;;;;;;;;;5.60;99.90;;;;;;5076087;28;21481;-63
2023/01/16 11:40:29;;;;;;;;;;;5.60;99.90;;;;;;5076551;28;19912;-63
2023/01/16 11:46:14;;;;;;;;;;;5.80;99.90;;;;;;5063275;28;19959;-67
2023/01/16 11:48:33;;;;;;;;;;;5.90;99.90;;;;;;5078394;28;19912;-63
2023/01/16 11:50:59;;;;;;;;;;;6.00;99.90;;;;;;5085913;28;20014;-62
2023/01/16 11:53:29;;;;;;;;;;;6.00;99.90;;;;;;5083220;28;20007;-62
2023/01/16 11:56:02;;;;;;;;;;;6.00;99.90;;;;;;5080121;28;19912;-61
2023/01/16 11:58:47;;;;;;;;;;;6.00;99.90;;;;;;5088449;28;19926;-63
2023/01/16 12:01:22;;;;;;;;;;;6.10;99.90;;;;;;5078531;28;19917;-63
2023/01/16 12:03:58;;;;;;;;;;;6.10;99.90;;;;;;5075956;28;19912;-62
2023/01/16 12:06:32;;;;;;;;;;;6.20;99.90;;;;;;5070248;28;19955;-63
2023/01/16 12:09:17;;;;;;;;;;;6.20;99.90;;;;;;5069162;28;19916;-64
2023/01/16 12:14:17;;;;;;;;;;;6.20;99.90;;;;;;5074314;28;19960;-63
2023/01/16 12:14:53;;;;;;;;;;;6.30;99.90;;;;;;5084766;28;19927;-63
2023/01/16 12:17:38;;;;;;;;;;;6.40;99.90;;;;;;5083814;28;19916;-63
2023/01/16 12:20:12;;;;;;;;;;;6.30;99.90;;;;;;5079031;28;19916;-61
2023/01/16 12:22:57;;;;;;;;;;;6.30;99.90;;;;;;5083898;28;19928;-64
2023/01/16 12:25:43;;;;;;;;;;;6.20;99.90;;;;;;5093570;28;20143;-63
2023/01/16 12:28:16;;;;;;;;;;;6.20;99.90;;;;;;5079247;28;20398;-63
2023/01/16 12:33:57;;;;;;;;;;;6.10;99.90;;;;;;5070718;28;19923;-61
2023/01/16 12:36:40;;;;;;;;;;;6.20;99.90;;;;;;5070434;28;20347;-61
2023/01/16 12:39:14;;;;;;;;;;;6.20;99.90;;;;;;5069506;28;20358;-62
2023/01/16 12:45:04;;;;;;;;;;;6.30;99.90;;;;;;5061205;28;20387;-62
2023/01/16 12:47:38;;;;;;;;;;;6.30;99.90;;;;;;5066948;28;20282;-61
2023/01/16 12:50:09;;;;;;;;;;;6.30;99.90;;;;;;5065410;28;19913;-61
2023/01/16 12:55:35;;;;;;;;;;;6.40;99.90;;;;;;5090613;27;20294;-64
2023/01/16 12:58:04;;;;;;;;;;;6.50;99.90;;;;;;5079327;28;19948;-63
2023/01/16 13:00:37;;;;;;;;;;;6.70;99.90;;;;;;5074497;28;19999;-63
2023/01/16 13:03:11;;;;;;;;;;;6.70;99.90;;;;;;5077231;28;20402;-63
2023/01/16 13:05:38;;;;;;;;;;;6.70;99.90;;;;;;5071464;28;20015;-63
2023/01/16 13:08:08;;;;;;;;;;;6.80;99.90;;;;;;5072622;28;20430;-64
2023/01/16 13:13:25;;;;;;;;;;;6.90;99.90;;;;;;5082478;28;19971;-64
2023/01/16 13:16:01;;;;;;;;;;;6.90;99.90;;;;;;5096048;28;19947;-64
2023/01/16 13:18:46;;;;;;;;;;;6.90;99.90;;;;;;5052297;28;19967;-63
2023/01/16 13:21:16;;;;;;;;;;;6.90;99.90;;;;;;5059620;28;19913;-63
2023/01/16 13:23:46;;;;;;;;;;;6.70;99.90;;;;;;5070797;28;19912;-63
2023/01/16 13:26:13;;;;;;;;;;;6.70;99.90;;;;;;5072380;28;19919;-63
2023/01/16 13:28:51;;;;;;;;;;;6.60;99.90;;;;;;5075179;28;19920;-63
2023/01/16 13:31:27;;;;;;;;;;;6.50;99.90;;;;;;5074884;28;19916;-63
2023/01/16 13:33:56;;;;;;;;;;;6.50;99.90;;;;;;5071805;28;19917;-64
2023/01/16 13:36:29;;;;;;;;;;;6.40;99.90;;;;;;5066465;28;19999;-64
2023/01/16 13:39:02;;;;;;;;;;;6.40;99.90;;;;;;5079198;28;19958;-64
2023/01/16 13:41:46;;;;;;;;;;;6.30;99.90;;;;;;5064282;28;19928;-63
2023/01/16 13:47:09;;;;;;;;;;;6.20;99.90;;;;;;5080514;28;19999;-63
2023/01/16 13:49:34;;;;;;;;;;;6.20;99.90;;;;;;5070758;28;19960;-63
2023/01/16 13:52:01;;;;;;;;;;;6.20;99.90;;;;;;5069807;28;19959;-63
2023/01/16 13:54:34;;;;;;;;;;;6.20;99.90;;;;;;5089518;28;19927;-63
2023/01/16 13:57:03;;;;;;;;;;;6.10;99.90;;;;;;5097152;28;19912;-64
2023/01/16 13:59:39;;;;;;;;;;;6.20;99.90;;;;;;5090131;28;19962;-63
2023/01/16 14:02:25;;;;;;;;;;;6.20;99.90;;;;;;5097543;28;20344;-63
2023/01/16 14:05:10;;;;;;;;;;;6.00;99.90;;;;;;5101972;28;19919;-63
2023/01/16 14:10:42;;;;;;;;;;;5.70;99.90;;;;;;5095880;28;19957;-64
2023/01/16 14:13:28;;;;;;;;;;;5.70;99.90;;;;;;5095362;28;19915;-63
2023/01/16 14:18:59;;;;;;;;;;;5.60;99.90;;;;;;5075164;28;20405;-63
2023/01/16 14:21:27;;;;;;;;;;;5.60;99.90;;;;;;5078383;28;19935;-63
2023/01/16 14:24:02;;;;;;;;;;;5.60;99.90;;;;;;5075884;28;19909;-64
2023/01/16 14:29:22;;;;;;;;;;;5.60;99.90;;;;;;5070086;28;19923;-63
2023/01/16 14:31:53;;;;;;;;;;;5.60;99.90;;;;;;5070126;28;19912;-63
2023/01/16 14:34:21;;;;;;;;;;;5.60;99.90;;;;;;5069136;28;19921;-63
2023/01/16 14:36:50;;;;;;;;;;;5.70;99.90;;;;;;5070324;28;19913;-64
2023/01/16 14:39:35;;;;;;;;;;;5.70;99.90;;;;;;5069256;28;19912;-63
2023/01/16 14:56:44;;;;;;;;;;;5.80;99.90;;;;;;5073079;28;19963;-62
2023/01/16 14:59:14;;;;;;;;;;;5.80;99.90;;;;;;5078362;28;19912;-60
2023/01/16 15:04:30;;;;;;;;;;;5.80;99.90;;;;;;5090200;28;19915;-61
2023/01/16 15:06:57;;;;;;;;;;;5.80;99.90;;;;;;5083502;28;20281;-62
2023/01/16 15:09:26;;;;;;;;;;;5.80;99.90;;;;;;5083500;28;19920;-62
2023/01/16 15:11:56;;;;;;;;;;;5.80;99.90;;;;;;5075161;28;19913;-63
2023/01/16 15:14:29;;;;;;;;;;;5.80;99.90;;;;;;5068723;28;19955;-62
2023/01/16 15:22:46;;;;;;;;;;;5.80;99.90;;;;;;5073848;28;19908;-62
2023/01/16 15:25:32;;;;;;;;;;;5.80;99.90;;;;;;5084828;28;19917;-62
2023/01/16 15:28:02;;;;;;;;;;;5.80;99.90;;;;;;5076364;28;19912;-61
2023/01/16 15:30:28;;;;;;;;;;;5.80;99.90;;;;;;5069992;28;19913;-62
2023/01/16 15:33:42;;;;;;;;;;;5.80;99.90;;;;;;5070131;28;20287;-62
2023/01/16 15:35:41;;;;;;;;;;;5.80;99.90;;;;;;5063613;28;20376;-61
2023/01/16 15:38:08;;;;;;;;;;;5.80;99.90;;;;;;5086780;28;20009;-61
2023/01/16 15:40:35;;;;;;;;;;;5.80;99.90;;;;;;5090069;28;19916;-60
2023/01/16 15:48:58;;;;;;;;;;;5.70;99.90;;;;;;5103177;28;20336;-62
2023/01/16 15:51:24;;;;;;;;;;;5.70;99.90;;;;;;5089682;28;20393;-62
2023/01/16 15:53:54;;;;;;;;;;;5.60;99.90;;;;;;5089902;28;19908;-62
2023/01/16 15:56:22;;;;;;;;;;;5.60;99.90;;;;;;5091275;28;19962;-63
2023/01/16 15:58:48;;;;;;;;;;;5.60;99.90;;;;;;5085895;28;19920;-62
2023/01/16 16:01:14;;;;;;;;;;;5.60;99.90;;;;;;5084985;28;19935;-62
2023/01/16 16:03:44;;;;;;;;;;;5.60;99.90;;;;;;5085669;28;19916;-63
2023/01/16 16:06:11;;;;;;;;;;;5.70;99.90;;;;;;5076768;28;20366;-63
2023/01/16 16:08:38;;;;;;;;;;;5.70;99.90;;;;;;5075079;28;19935;-62
2023/01/16 16:13:52;;;;;;;;;;;5.60;99.90;;;;;;5077627;28;19996;-62
2023/01/16 16:19:05;;;;;;;;;;;5.40;99.90;;;;;;5086239;28;20377;-64
2023/01/16 16:21:32;;;;;;;;;;;5.30;99.90;;;;;;5076674;28;19912;-62
2023/01/16 16:23:59;;;;;;;;;;;5.30;99.90;;;;;;5076612;28;19919;-63
2023/01/16 16:26:25;;;;;;;;;;;5.30;99.90;;;;;;5057614;28;20413;-62
2023/01/16 16:28:50;;;;;;;;;;;5.30;99.90;;;;;;5087993;28;20023;-62
2023/01/16 16:31:20;;;;;;;;;;;5.30;99.90;;;;;;5092831;28;19916;-63
2023/01/16 16:34:06;;;;;;;;;;;5.30;99.90;;;;;;5082452;28;20332;-63
2023/01/16 16:36:42;;;;;;;;;;;5.30;99.90;;;;;;5073507;28;19958;-64
2023/01/16 16:39:27;;;;;;;;;;;5.30;99.90;;;;;;5085484;28;19912;-62
2023/01/16 16:44:39;;;;;;;;;;;5.30;99.90;;;;;;5073157;28;20385;-64
2023/01/16 16:47:25;;;;;;;;;;;5.30;99.90;;;;;;5091305;28;19955;-62